Time;durP1;ratioP1;P1;durP2;ratioP2;P2;SDS_P1;SDS_P2;PMS_P1;PMS_P2;Temp;Humidity;BMP_temperature;BMP_pressure;BME280_temperature;BME280_humidity;BME280_pressure;Samples;Min_cycle;Max_cycle;Signal;HPM_P1;HPM_P2
2023/09/22 00:00:14;;;;;;;;;;;;;;;29.23;40.74;93167.03;4992980;28;6989;-66
2023/09/22 00:02:46;;;;;;;;;;;;;;;29.22;40.95;93154.47;4983556;28;7112;-66
2023/09/22 00:05:14;;;;;;;;;;;;;;;29.22;41.29;93154.47;5008902;28;9222;-65
2023/09/22 00:07:47;;;;;;;;;;;;;;;29.22;40.75;93151.69;5008669;28;7283;-66
2023/09/22 00:10:13;;;;;;;;;;;;;;;29.21;40.67;93155.78;5005414;28;9165;-66
2023/09/22 00:12:40;;;;;;;;;;;;;;;29.21;41.00;93166.84;4985936;28;9177;-65
2023/09/22 00:15:10;;;;;;;;;;;;;;;29.21;40.89;93169.63;5011145;28;7199;-66
2023/09/22 00:17:36;;;;;;;;;;;;;;;29.21;41.10;93169.63;5014551;28;7005;-66
2023/09/22 00:20:03;;;;;;;;;;;;;;;29.19;40.98;93172.94;4988918;28;7214;-66
2023/09/22 00:22:29;;;;;;;;;;;;;;;29.19;41.19;93172.94;5013410;28;7466;-65
2023/09/22 00:24:55;;;;;;;;;;;;;;;29.17;41.00;93175.53;4995135;28;7087;-66
2023/09/22 00:27:21;;;;;;;;;;;;;;;29.15;41.22;93177.38;4993203;28;7472;-66
2023/09/22 00:30:05;;;;;;;;;;;;;;;29.18;41.01;93167.97;5010798;28;9059;-66
2023/09/22 00:32:31;;;;;;;;;;;;;;;29.17;41.35;93174.81;4996038;28;8948;-66
2023/09/22 00:35:10;;;;;;;;;;;;;;;29.17;41.91;93174.81;4995885;28;7091;-63
2023/09/22 00:37:43;;;;;;;;;;;;;;;29.14;41.38;93176.66;5014892;28;9036;-63
2023/09/22 00:40:21;;;;;;;;;;;;;;;29.17;41.39;93180.38;5010816;28;8851;-63
2023/09/22 00:43:06;;;;;;;;;;;;;;;29.16;41.00;93184.38;5002810;28;7220;-63
2023/09/22 00:45:39;;;;;;;;;;;;;;;29.16;40.70;93174.09;5008361;28;7348;-63
2023/09/22 00:48:19;;;;;;;;;;;;;;;29.15;41.80;93172.56;4989937;28;7004;-63
2023/09/22 00:51:23;;;;;;;;;;;;;;;29.17;41.33;93185.91;5012842;28;7627;-63
2023/09/22 00:53:59;;;;;;;;;;;;;;;29.15;41.82;93177.38;4986402;28;7225;-64
2023/09/22 00:56:32;;;;;;;;;;;;;;;29.14;41.57;93170.38;5010811;28;7078;-63
2023/09/22 00:59:07;;;;;;;;;;;;;;;29.15;40.81;93180.88;4988682;28;7093;-64
2023/09/22 01:01:44;;;;;;;;;;;;;;;29.16;41.15;93178.84;5015004;28;9405;-63
2023/09/22 01:04:21;;;;;;;;;;;;;;;29.14;41.46;93175.91;5004845;28;7447;-63
2023/09/22 01:07:06;;;;;;;;;;;;;;;29.14;41.13;93173.13;4995609;28;8673;-64
2023/09/22 01:09:36;;;;;;;;;;;;;;;29.13;41.64;93171.66;4990747;28;7196;-63
2023/09/22 01:12:05;;;;;;;;;;;;;;;29.14;41.07;93176.66;5003242;28;7219;-64
2023/09/22 01:14:32;;;;;;;;;;;;;;;29.13;41.48;93169.63;4993968;28;9129;-63
2023/09/22 01:17:13;;;;;;;;;;;;;;;29.14;40.80;93170.38;5009485;28;7731;-63
2023/09/22 01:19:50;;;;;;;;;;;;;;;29.09;40.91;93164.50;4997409;28;8778;-64
2023/09/22 01:22:20;;;;;;;;;;;;;;;29.11;41.28;93175.00;5006280;28;7269;-64
2023/09/22 01:24:50;;;;;;;;;;;;;;;29.09;41.88;93163.75;4996424;28;7397;-64
2023/09/22 01:27:17;;;;;;;;;;;;;;;29.10;41.56;93152.09;5008196;28;7255;-64
2023/09/22 01:29:45;;;;;;;;;;;;;;;29.10;41.47;93157.66;4994805;28;7260;-64
2023/09/22 01:32:11;;;;;;;;;;;;;;;29.11;42.07;93161.16;5007560;28;7225;-63
2023/09/22 01:34:40;;;;;;;;;;;;;;;29.11;40.78;93169.47;4999499;28;6996;-64
2023/09/22 01:37:09;;;;;;;;;;;;;;;29.09;41.43;93172.81;5002746;28;7278;-64
2023/09/22 01:39:41;;;;;;;;;;;;;;;29.10;41.44;93179.78;5005339;28;9088;-64
2023/09/22 01:42:09;;;;;;;;;;;;;;;29.07;41.12;93161.56;5012662;28;7508;-64
2023/09/22 01:45:10;;;;;;;;;;;;;;;29.11;41.28;93175.00;5006291;28;9050;-61
2023/09/22 01:47:49;;;;;;;;;;;;;;;29.12;41.51;93181.28;4979363;28;7221;-61
2023/09/22 01:50:27;;;;;;;;;;;;;;;29.11;41.44;93183.31;4974823;28;7429;-61
2023/09/22 01:52:53;;;;;;;;;;;;;;;29.07;41.13;93180.94;4973681;28;7187;-61
2023/09/22 01:55:20;;;;;;;;;;;;;;;29.08;41.25;93178.88;4959995;28;7230;-62
2023/09/22 01:57:49;;;;;;;;;;;;;;;29.06;41.25;93175.94;4983793;28;7321;-62
2023/09/22 02:00:19;;;;;;;;;;;;;;;29.07;41.48;93186.47;4959929;28;7520;-62
2023/09/22 02:02:58;;;;;;;;;;;;;;;29.05;41.84;93186.31;4978786;28;7195;-62
2023/09/22 02:05:38;;;;;;;;;;;;;;;29.07;40.98;93194.78;4975772;28;6996;-61
2023/09/22 02:08:28;;;;;;;;;;;;;;;29.08;41.71;93209.34;4979191;28;7319;-62
2023/09/22 02:10:58;;;;;;;;;;;;;;;29.07;41.32;93200.31;4961192;28;9211;-62
2023/09/22 02:13:24;;;;;;;;;;;;;;;29.04;41.84;93195.91;4975298;28;7366;-62
2023/09/22 02:15:52;;;;;;;;;;;;;;;29.04;41.80;93201.44;4972496;28;8733;-62
2023/09/22 02:18:18;;;;;;;;;;;;;;;29.05;41.76;93200.16;4974965;28;6974;-62
2023/09/22 02:20:47;;;;;;;;;;;;;;;29.06;42.06;93198.09;4972409;28;7501;-62
2023/09/22 02:23:13;;;;;;;;;;;;;;;29.05;41.38;93189.06;4975828;28;7147;-62
2023/09/22 02:25:45;;;;;;;;;;;;;;;29.06;41.76;93189.78;4997880;28;9104;-62
2023/09/22 02:28:12;;;;;;;;;;;;;;;29.03;41.43;93183.38;4998143;28;7259;-62
2023/09/22 02:30:39;;;;;;;;;;;;;;;29.05;41.47;93191.09;5014365;28;7186;-62
2023/09/22 02:33:08;;;;;;;;;;;;;;;29.02;40.84;93192.94;4996403;28;9079;-62
2023/09/22 02:35:34;;;;;;;;;;;;;;;29.00;41.82;93187.25;5005935;28;7228;-61
2023/09/22 02:38:00;;;;;;;;;;;;;;;29.03;41.14;93188.91;4985240;28;6998;-62
2023/09/22 02:40:28;;;;;;;;;;;;;;;29.00;41.56;93181.72;5003855;28;7014;-62
2023/09/22 02:42:54;;;;;;;;;;;;;;;29.02;41.17;93186.69;5006490;28;7112;-62
2023/09/22 02:45:20;;;;;;;;;;;;;;;29.00;42.05;93184.47;4995732;28;9064;-62
2023/09/22 02:47:47;;;;;;;;;;;;;;;29.00;41.54;93192.78;4991004;28;7433;-62
2023/09/22 02:50:17;;;;;;;;;;;;;;;29.02;41.14;93195.72;4994257;28;8790;-63
2023/09/22 02:52:44;;;;;;;;;;;;;;;29.00;41.08;93195.56;4995725;28;7483;-61
2023/09/22 02:55:11;;;;;;;;;;;;;;;29.02;41.67;93198.50;5009363;28;7467;-60
2023/09/22 02:57:46;;;;;;;;;;;;;;;29.01;41.14;93194.25;5003506;28;9037;-60
2023/09/22 03:00:18;;;;;;;;;;;;;;;29.01;41.52;93191.47;4988834;28;9003;-60
2023/09/22 03:02:59;;;;;;;;;;;;;;;29.01;40.98;93197.00;4999053;28;8811;-60
2023/09/22 03:05:28;;;;;;;;;;;;;;;28.99;41.53;93191.31;5012944;28;7040;-60
2023/09/22 03:07:56;;;;;;;;;;;;;;;28.95;41.20;93193.72;5003945;28;9123;-59
2023/09/22 03:10:25;;;;;;;;;;;;;;;28.99;40.79;93196.84;4996396;28;8470;-60
2023/09/22 03:12:53;;;;;;;;;;;;;;;28.98;41.87;93203.69;4997072;28;7060;-59
2023/09/22 03:15:20;;;;;;;;;;;;;;;28.99;41.60;93205.13;5009428;28;7244;-60
2023/09/22 03:17:46;;;;;;;;;;;;;;;28.99;41.55;93205.13;4996442;28;7519;-59
2023/09/22 03:20:16;;;;;;;;;;;;;;;28.95;41.48;93207.56;4997026;28;8881;-59
2023/09/22 03:22:49;;;;;;;;;;;;;;;28.98;41.34;93214.75;5008169;28;7251;-59
2023/09/22 03:25:26;;;;;;;;;;;;;;;29.00;41.24;93223.25;4998071;28;8639;-60
2023/09/22 03:27:52;;;;;;;;;;;;;;;28.99;41.73;93230.06;4997693;28;9232;-60
2023/09/22 03:30:18;;;;;;;;;;;;;;;28.99;40.74;93221.03;5012364;28;7438;-59
2023/09/22 03:33:12;;;;;;;;;;;;;;;28.98;41.44;93216.78;4994146;28;6989;-60
2023/09/22 03:35:52;;;;;;;;;;;;;;;28.96;41.94;93206.28;4956318;28;7264;-59
2023/09/22 03:38:32;;;;;;;;;;;;;;;28.96;40.90;93205.53;4982822;28;7487;-60
2023/09/22 03:41:10;;;;;;;;;;;;;;;28.95;41.70;93202.03;4981407;28;7059;-59
2023/09/22 03:43:37;;;;;;;;;;;;;;;28.94;41.82;93197.06;4975462;28;7007;-59
2023/09/22 03:46:04;;;;;;;;;;;;;;;28.95;41.04;93202.03;4961457;28;7084;-60
2023/09/22 03:48:32;;;;;;;;;;;;;;;28.94;42.12;93203.34;4973552;28;7243;-60
2023/09/22 03:51:28;;;;;;;;;;;;;;;28.96;41.80;93211.06;4977829;28;9320;-59
2023/09/22 03:54:31;;;;;;;;;;;;;;;28.95;41.96;93195.75;4959845;28;9565;-59
2023/09/22 03:56:58;;;;;;;;;;;;;;;28.93;41.42;93193.56;4937518;28;6994;-60
2023/09/22 03:59:56;;;;;;;;;;;;;;;28.92;41.46;93175.50;4934061;28;7237;-59
2023/09/22 04:02:27;;;;;;;;;;;;;;;28.93;41.05;93173.44;4927498;28;7034;-60
2023/09/22 04:04:54;;;;;;;;;;;;;;;28.92;41.32;93174.75;4916981;29;7601;-61
2023/09/22 04:07:31;;;;;;;;;;;;;;;28.92;41.33;93180.28;4942881;28;7005;-61
2023/09/22 04:09:58;;;;;;;;;;;;;;;28.92;41.39;93188.59;4932654;29;7758;-61
2023/09/22 04:12:25;;;;;;;;;;;;;;;28.92;41.65;93194.13;4914425;29;8788;-61
2023/09/22 04:14:51;;;;;;;;;;;;;;;28.90;41.69;93193.94;4925951;28;7384;-61
2023/09/22 04:17:18;;;;;;;;;;;;;;;28.87;41.73;93200.59;4929364;28;6989;-61
2023/09/22 04:19:44;;;;;;;;;;;;;;;28.90;41.85;93205.03;4929228;29;8742;-61
2023/09/22 04:22:12;;;;;;;;;;;;;;;28.88;41.24;93194.50;4925975;29;9149;-61
2023/09/22 04:24:47;;;;;;;;;;;;;;;28.89;41.59;93189.69;4928783;28;7112;-61
2023/09/22 04:27:18;;;;;;;;;;;;;;;28.87;42.08;93179.19;4928414;29;7171;-61
2023/09/22 04:29:45;;;;;;;;;;;;;;;28.87;41.12;93176.44;4924972;29;10256;-60
2023/09/22 04:32:11;;;;;;;;;;;;;;;28.87;41.18;93175.69;4938065;28;8922;-61
2023/09/22 04:34:48;;;;;;;;;;;;;;;28.87;41.76;93187.50;4998194;28;7066;-61
2023/09/22 04:37:16;;;;;;;;;;;;;;;28.88;41.32;93191.72;4997310;28;7197;-61
2023/09/22 04:39:44;;;;;;;;;;;;;;;28.87;41.95;93181.97;4996761;28;7001;-61
2023/09/22 04:42:10;;;;;;;;;;;;;;;28.87;41.25;93176.44;4989504;28;7559;-60
2023/09/22 04:44:36;;;;;;;;;;;;;;;28.88;41.56;93183.41;4992829;28;7304;-60
2023/09/22 04:47:03;;;;;;;;;;;;;;;28.87;42.21;93189.53;4993392;28;7213;-60
2023/09/22 04:49:29;;;;;;;;;;;;;;;28.88;42.07;93188.94;5011381;28;9206;-61
2023/09/22 04:52:02;;;;;;;;;;;;;;;28.88;41.14;93193.78;4991780;28;7096;-61
2023/09/22 04:54:40;;;;;;;;;;;;;;;28.88;41.84;93213.88;5009729;28;9169;-61
2023/09/22 04:57:33;;;;;;;;;;;;;;;28.88;42.24;93224.22;5009679;28;6993;-60
2023/09/22 05:00:05;;;;;;;;;;;;;;;28.91;41.24;93229.38;4959944;28;7191;-60
2023/09/22 05:02:52;;;;;;;;;;;;;;;28.91;41.16;93234.91;4971318;28;7261;-61
2023/09/22 05:05:51;;;;;;;;;;;;;;;28.90;41.84;93225.13;4958807;28;7145;-60
2023/09/22 05:08:18;;;;;;;;;;;;;;;28.86;42.01;93222.00;4913439;29;7242;-60
2023/09/22 05:10:48;;;;;;;;;;;;;;;28.85;41.23;93225.34;4916034;29;7154;-61
2023/09/22 05:13:16;;;;;;;;;;;;;;;28.85;41.71;93217.78;4928842;29;6988;-63
2023/09/22 05:15:48;;;;;;;;;;;;;;;28.83;41.41;93223.13;4898899;29;8762;-63
2023/09/22 05:18:14;;;;;;;;;;;;;;;28.87;41.39;93231.03;4912089;29;6966;-63
2023/09/22 05:21:03;;;;;;;;;;;;;;;28.88;41.13;93227.72;4896003;29;7245;-62
2023/09/22 05:23:54;;;;;;;;;;;;;;;28.87;41.69;93236.56;4891051;29;7088;-63
2023/09/22 05:26:58;;;;;;;;;;;;;;;28.87;41.19;93242.13;4915855;29;7158;-63
2023/09/22 05:29:33;;;;;;;;;;;;;;;28.81;41.75;93236.81;4857592;29;7122;-64
2023/09/22 05:32:20;;;;;;;;;;;;;;;28.86;42.00;93252.44;4852987;29;7247;-63
2023/09/22 05:34:57;;;;;;;;;;;;;;;28.83;41.30;93245.28;4850581;29;9183;-63
2023/09/22 05:37:24;;;;;;;;;;;;;;;28.83;42.06;93255.59;4842912;29;9413;-64
2023/09/22 05:40:08;;;;;;;;;;;;;;;28.82;41.25;93243.78;4829821;29;7231;-64
2023/09/22 05:42:36;;;;;;;;;;;;;;;28.83;41.63;93253.56;4842428;29;7078;-63
2023/09/22 05:45:03;;;;;;;;;;;;;;;28.82;41.08;93251.34;4885733;29;9166;-63
2023/09/22 05:47:30;;;;;;;;;;;;;;;28.84;41.10;93255.03;4899306;29;7243;-63
2023/09/22 05:50:23;;;;;;;;;;;;;;;28.83;41.67;93264.66;4912508;29;7226;-62
2023/09/22 05:52:58;;;;;;;;;;;;;;;28.83;41.03;93272.22;4916729;29;9037;-63
2023/09/22 05:55:41;;;;;;;;;;;;;;;28.83;41.15;93261.88;4917306;29;7016;-63
2023/09/22 05:58:08;;;;;;;;;;;;;;;28.83;41.82;93264.66;4921084;29;6992;-63
2023/09/22 06:00:45;;;;;;;;;;;;;;;28.82;41.41;93268.69;4971672;28;9095;-63
2023/09/22 06:03:13;;;;;;;;;;;;;;;28.83;41.56;93275.72;5000734;28;7343;-63
2023/09/22 06:05:42;;;;;;;;;;;;;;;28.84;41.11;93274.41;5010398;28;9063;-64
2023/09/22 06:08:30;;;;;;;;;;;;;;;28.82;41.05;93267.97;4992391;28;7247;-63
2023/09/22 06:11:41;;;;;;;;;;;;;;;28.82;40.63;93276.25;5016177;28;7377;-63
2023/09/22 06:14:39;;;;;;;;;;;;;;;28.78;41.42;93273.88;5013538;28;7221;-64
2023/09/22 06:17:14;;;;;;;;;;;;;;;28.79;40.77;93274.63;4939464;28;6956;-63
2023/09/22 06:20:15;;;;;;;;;;;;;;;28.79;40.30;93280.91;4947535;28;9335;-63
2023/09/22 06:22:55;;;;;;;;;;;;;;;28.78;40.53;93279.41;4958878;28;7367;-56
2023/09/22 06:26:00;;;;;;;;;;;;;;;28.78;40.32;93279.41;4944350;28;9232;-60
2023/09/22 06:28:29;;;;;;;;;;;;;;;28.79;40.93;93269.84;4952194;28;9336;-60
2023/09/22 06:31:04;;;;;;;;;;;;;;;28.77;40.55;93280.72;4966576;28;9249;-61
2023/09/22 06:33:49;;;;;;;;;;;;;;;28.78;40.59;93286.97;4975459;28;8757;-60
2023/09/22 06:36:17;;;;;;;;;;;;;;;28.72;40.97;93278.16;4967940;28;9086;-61
2023/09/22 06:38:43;;;;;;;;;;;;;;;28.72;40.57;93287.19;4971689;28;8731;-60
2023/09/22 06:41:16;;;;;;;;;;;;;;;28.70;41.36;93284.25;4971979;28;7510;-60
2023/09/22 06:43:53;;;;;;;;;;;;;;;28.68;40.86;93275.03;4963904;28;7236;-61
2023/09/22 06:46:28;;;;;;;;;;;;;;;28.68;40.84;93258.44;4973149;28;7420;-60
2023/09/22 06:49:05;;;;;;;;;;;;;;;28.66;41.67;93263.78;4974269;28;7165;-60
2023/09/22 06:51:41;;;;;;;;;;;;;;;28.66;40.63;93272.81;4970302;28;7256;-60
2023/09/22 06:54:09;;;;;;;;;;;;;;;28.66;41.46;93272.81;5008060;28;7007;-61
2023/09/22 06:56:36;;;;;;;;;;;;;;;28.66;41.17;93266.56;4996494;28;9856;-60
2023/09/22 06:59:02;;;;;;;;;;;;;;;28.62;40.95;93280.78;5010542;28;7325;-61
2023/09/22 07:01:33;;;;;;;;;;;;;;;28.68;41.05;93288.88;4995396;28;7523;-61
2023/09/22 07:03:59;;;;;;;;;;;;;;;28.67;41.01;93277.06;4989140;28;8960;-60
2023/09/22 07:06:33;;;;;;;;;;;;;;;28.65;41.49;93284.44;4972768;28;7021;-60
2023/09/22 07:08:59;;;;;;;;;;;;;;;28.64;41.07;93280.94;5025665;28;10352;-60
2023/09/22 07:11:36;;;;;;;;;;;;;;;28.63;40.94;93271.16;5014434;28;9126;-60
2023/09/22 07:14:47;;;;;;;;;;;;;;;28.66;41.22;93277.63;4997999;28;9101;-60
2023/09/22 07:17:29;;;;;;;;;;;;;;;28.62;41.68;93277.25;4957312;28;8792;-61
2023/09/22 07:19:58;;;;;;;;;;;;;;;28.61;41.43;93276.53;4960960;28;7267;-60
2023/09/22 07:22:42;;;;;;;;;;;;;;;28.60;41.11;93268.78;4971191;28;9093;-61
2023/09/22 07:25:22;;;;;;;;;;;;;;;28.60;40.53;93285.38;4953458;28;8875;-61
2023/09/22 07:27:48;;;;;;;;;;;;;;;28.57;40.58;93278.94;4988360;28;9064;-60
2023/09/22 07:30:16;;;;;;;;;;;;;;;28.60;41.25;93269.50;4966383;28;7164;-61
2023/09/22 07:32:43;;;;;;;;;;;;;;;28.59;40.90;93268.03;4960731;28;9266;-61
2023/09/22 07:35:10;;;;;;;;;;;;;;;28.61;41.38;93271.00;4961321;28;7025;-61
2023/09/22 07:37:39;;;;;;;;;;;;;;;28.62;40.48;93269.72;4956798;28;7005;-61
2023/09/22 07:40:08;;;;;;;;;;;;;;;28.62;40.81;93271.72;4958283;28;7079;-61
2023/09/22 07:42:38;;;;;;;;;;;;;;;28.59;41.03;93275.59;4979386;28;7252;-61
2023/09/22 07:45:04;;;;;;;;;;;;;;;28.62;41.17;93278.00;4956232;28;8499;-61
2023/09/22 07:47:51;;;;;;;;;;;;;;;28.61;41.43;93262.69;4954895;28;7019;-61
2023/09/22 07:50:39;;;;;;;;;;;;;;;28.62;41.39;93271.72;4965580;28;9455;-61
2023/09/22 07:53:08;;;;;;;;;;;;;;;28.59;41.17;93287.41;4959368;28;7012;-61
2023/09/22 07:55:38;;;;;;;;;;;;;;;28.58;41.24;93288.69;5011164;28;9197;-61
2023/09/22 07:58:20;;;;;;;;;;;;;;;28.59;41.41;93306.78;4995551;28;9112;-61
2023/09/22 08:00:48;;;;;;;;;;;;;;;28.56;41.23;93296.06;5006080;28;7072;-61
2023/09/22 08:03:18;;;;;;;;;;;;;;;28.60;41.46;93302.00;5004646;28;9064;-61
2023/09/22 08:05:46;;;;;;;;;;;;;;;28.58;41.86;93299.75;5017059;28;6967;-61
2023/09/22 08:08:18;;;;;;;;;;;;;;;28.58;41.80;93307.34;5006087;28;8786;-61
2023/09/22 08:10:44;;;;;;;;;;;;;;;28.57;41.33;93314.91;5012224;28;6926;-61
2023/09/22 08:13:43;;;;;;;;;;;;;;;28.57;41.27;93317.66;4995046;28;7066;-61
2023/09/22 08:16:26;;;;;;;;;;;;;;;28.55;41.08;93306.38;4942214;28;7438;-61
2023/09/22 08:19:11;;;;;;;;;;;;;;;28.55;41.15;93320.22;4954378;28;7648;-61
2023/09/22 08:22:28;;;;;;;;;;;;;;;28.55;41.92;93327.78;4943944;28;7253;-61
2023/09/22 08:25:04;;;;;;;;;;;;;;;28.56;41.83;93329.28;4931826;29;7360;-61
2023/09/22 08:27:40;;;;;;;;;;;;;;;28.55;42.04;93328.53;4919377;29;8802;-61
2023/09/22 08:30:15;;;;;;;;;;;;;;;28.55;41.93;93330.53;4916235;29;7325;-62
2023/09/22 08:32:53;;;;;;;;;;;;;;;28.55;42.13;93317.47;4929999;29;7051;-61
2023/09/22 08:35:48;;;;;;;;;;;;;;;28.56;41.97;93307.84;4935693;28;7244;-62
2023/09/22 08:38:43;;;;;;;;;;;;;;;28.60;41.63;93311.00;4927725;29;7927;-61
2023/09/22 08:41:09;;;;;;;;;;;;;;;28.60;41.49;93313.78;4917205;29;7195;-60
2023/09/22 08:43:49;;;;;;;;;;;;;;;28.64;41.80;93330.75;4917170;29;9231;-61
2023/09/22 08:47:12;;;;;;;;;;;;;;;28.63;41.30;93331.28;4929815;29;7663;-61
2023/09/22 08:49:56;;;;;;;;;;;;;;;28.65;41.25;93328.69;4911057;29;8503;-60
2023/09/22 08:52:32;;;;;;;;;;;;;;;28.63;41.55;93315.44;4891949;29;7508;-61
2023/09/22 08:55:03;;;;;;;;;;;;;;;28.66;40.97;93333.69;4883448;29;8744;-61
2023/09/22 08:58:26;;;;;;;;;;;;;;;28.68;41.39;93335.91;4897121;29;8456;-61
2023/09/22 09:00:54;;;;;;;;;;;;;;;28.68;41.16;93342.19;4884719;29;7235;-61
2023/09/22 09:03:44;;;;;;;;;;;;;;;28.66;41.13;93338.50;4896656;29;7192;-61
2023/09/22 09:06:21;;;;;;;;;;;;;;;28.64;41.17;93339.06;4901923;29;7448;-61
2023/09/22 09:09:12;;;;;;;;;;;;;;;28.68;40.97;93331.09;4876226;29;7275;-61
2023/09/22 09:12:08;;;;;;;;;;;;;;;28.67;41.28;93332.38;4894287;29;7418;-61
2023/09/22 09:14:49;;;;;;;;;;;;;;;28.69;41.94;93323.53;4895368;29;9033;-61
2023/09/22 09:17:26;;;;;;;;;;;;;;;28.69;41.43;93321.50;4878472;29;7256;-61
2023/09/22 09:20:05;;;;;;;;;;;;;;;28.70;41.71;93316.72;4905371;29;9205;-61
2023/09/22 09:22:35;;;;;;;;;;;;;;;28.70;41.08;93317.44;4915870;29;9344;-62
2023/09/22 09:25:09;;;;;;;;;;;;;;;28.70;41.64;93320.22;4930275;29;7318;-61
2023/09/22 09:27:58;;;;;;;;;;;;;;;28.69;41.10;93323.53;4928463;29;7496;-61
2023/09/22 09:30:37;;;;;;;;;;;;;;;28.69;41.65;93327.03;4938299;29;7009;-61
2023/09/22 09:33:47;;;;;;;;;;;;;;;28.70;41.30;93328.53;4918543;29;6996;-61
2023/09/22 09:36:21;;;;;;;;;;;;;;;28.70;41.33;93331.28;4951677;28;7255;-61
2023/09/22 09:38:49;;;;;;;;;;;;;;;28.69;41.02;93338.09;4956918;28;9201;-61
2023/09/22 09:41:21;;;;;;;;;;;;;;;28.68;41.52;93336.66;4937971;28;7184;-61
2023/09/22 09:43:51;;;;;;;;;;;;;;;28.70;41.65;93336.81;4943469;28;7231;-61
2023/09/22 09:46:19;;;;;;;;;;;;;;;28.70;41.98;93339.59;4925764;28;7846;-61
2023/09/22 09:49:18;;;;;;;;;;;;;;;28.71;41.29;93348.63;4938779;28;6992;-61
2023/09/22 09:51:59;;;;;;;;;;;;;;;28.73;41.39;93346.03;4892369;29;9490;-61
2023/09/22 09:54:44;;;;;;;;;;;;;;;28.69;41.72;93340.13;4892603;29;9139;-55
2023/09/22 09:57:25;;;;;;;;;;;;;;;28.71;41.64;93348.63;4892733;29;7363;-55
2023/09/22 09:59:53;;;;;;;;;;;;;;;28.71;41.11;93341.03;4865393;29;9062;-55
2023/09/22 10:02:36;;;;;;;;;;;;;;;28.72;41.48;93342.53;4881577;29;9084;-55
2023/09/22 10:05:10;;;;;;;;;;;;;;;28.72;41.96;93339.03;4891257;29;9090;-55
2023/09/22 10:07:51;;;;;;;;;;;;;;;28.70;41.43;93345.13;4888288;29;7666;-55
2023/09/22 10:10:47;;;;;;;;;;;;;;;28.72;41.94;93350.84;4891983;29;8964;-55
2023/09/22 10:13:16;;;;;;;;;;;;;;;28.72;40.80;93348.06;4937175;28;8057;-55
2023/09/22 10:16:03;;;;;;;;;;;;;;;28.74;40.89;93348.25;4931226;28;7329;-55
2023/09/22 10:18:59;;;;;;;;;;;;;;;28.76;41.84;93345.66;4935020;28;7247;-55
2023/09/22 10:21:52;;;;;;;;;;;;;;;28.76;41.10;93339.38;4935195;28;7256;-55
2023/09/22 10:24:27;;;;;;;;;;;;;;;28.73;41.92;93323.91;4942930;28;7268;-55
2023/09/22 10:27:14;;;;;;;;;;;;;;;28.74;41.37;93317.81;4940812;28;7109;-55
2023/09/22 10:29:42;;;;;;;;;;;;;;;28.72;41.73;93311.34;5011388;28;9224;-55
2023/09/22 10:32:36;;;;;;;;;;;;;;;28.71;42.56;93334.81;4999644;28;7218;-55
2023/09/22 10:35:10;;;;;;;;;;;;;;;28.69;43.42;93332.56;5016834;28;8356;-56
2023/09/22 10:37:57;;;;;;;;;;;;;;;28.71;43.38;93321.69;5021883;28;7224;-55
2023/09/22 10:40:38;;;;;;;;;;;;;;;28.71;43.07;93307.13;5005712;28;7339;-55
2023/09/22 10:43:18;;;;;;;;;;;;;;;28.69;42.90;93296.59;5012641;28;8793;-55
2023/09/22 10:45:54;;;;;;;;;;;;;;;28.71;42.83;93301.59;5010783;28;9461;-56
2023/09/22 10:48:42;;;;;;;;;;;;;;;28.73;42.76;93312.84;4999758;28;7180;-55
2023/09/22 10:51:11;;;;;;;;;;;;;;;28.74;43.18;93328.13;4999703;28;7199;-55
2023/09/22 10:53:54;;;;;;;;;;;;;;;28.74;42.55;93328.88;5010151;28;7091;-55
2023/09/22 10:56:35;;;;;;;;;;;;;;;28.73;41.96;93327.41;5010656;28;8757;-55
2023/09/22 10:59:03;;;;;;;;;;;;;;;28.72;42.29;93325.19;5006663;28;7280;-55
2023/09/22 11:01:45;;;;;;;;;;;;;;;28.69;42.27;93321.50;5013717;28;8702;-55
2023/09/22 11:04:45;;;;;;;;;;;;;;;28.70;42.90;93327.78;5008118;28;7591;-61
2023/09/22 11:07:12;;;;;;;;;;;;;;;28.69;42.20;93329.81;4920238;29;7133;-61
2023/09/22 11:09:59;;;;;;;;;;;;;;;28.71;42.25;93316.16;4926197;29;7069;-61
2023/09/22 11:12:39;;;;;;;;;;;;;;;28.69;42.13;93318.72;4928825;29;9211;-61
2023/09/22 11:15:11;;;;;;;;;;;;;;;28.71;41.94;93320.97;4912606;28;7256;-61
2023/09/22 11:17:38;;;;;;;;;;;;;;;28.70;42.14;93323.00;4929721;28;7187;-61
2023/09/22 11:20:18;;;;;;;;;;;;;;;28.72;42.47;93325.19;4932292;28;7475;-61
2023/09/22 11:22:48;;;;;;;;;;;;;;;28.73;41.95;93319.09;4909335;29;8795;-61
2023/09/22 11:25:15;;;;;;;;;;;;;;;28.73;42.32;93321.16;4925514;29;9189;-61
2023/09/22 11:27:55;;;;;;;;;;;;;;;28.70;42.55;93325.75;4905272;29;7234;-61
2023/09/22 11:30:28;;;;;;;;;;;;;;;28.68;42.66;93325.56;4917116;29;8704;-61
2023/09/22 11:33:25;;;;;;;;;;;;;;;28.71;42.01;93329.97;4921495;29;7221;-60
2023/09/22 11:35:52;;;;;;;;;;;;;;;28.68;42.12;93330.38;4889075;29;9303;-61
2023/09/22 11:38:28;;;;;;;;;;;;;;;28.72;41.88;93314.13;4882191;29;7194;-61
2023/09/22 11:41:16;;;;;;;;;;;;;;;28.71;41.98;93318.19;4879373;29;8944;-61
2023/09/22 11:43:44;;;;;;;;;;;;;;;28.69;42.36;93343.63;4925922;28;7128;-61
2023/09/22 11:46:15;;;;;;;;;;;;;;;28.69;41.71;93332.56;4951469;28;7575;-62
2023/09/22 11:49:07;;;;;;;;;;;;;;;28.70;41.46;93336.81;4946373;28;7073;-61
2023/09/22 11:52:01;;;;;;;;;;;;;;;28.72;41.98;93330.72;4948222;28;9124;-61
2023/09/22 11:54:30;;;;;;;;;;;;;;;28.69;41.98;93318.72;4958653;28;7239;-61
2023/09/22 11:57:15;;;;;;;;;;;;;;;28.70;42.36;93306.38;4953795;28;9099;-61
2023/09/22 12:00:07;;;;;;;;;;;;;;;28.72;42.24;93303.06;4956270;28;9056;-61
2023/09/22 12:02:50;;;;;;;;;;;;;;;28.72;42.03;93309.34;4973539;28;8908;-61
2023/09/22 12:05:16;;;;;;;;;;;;;;;28.71;42.09;93312.66;4954823;28;9083;-61
2023/09/22 12:07:45;;;;;;;;;;;;;;;28.68;42.46;93306.22;4968756;28;8816;-61
2023/09/22 12:10:27;;;;;;;;;;;;;;;28.68;41.79;93320.03;4953837;28;7127;-61
2023/09/22 12:13:27;;;;;;;;;;;;;;;28.70;42.09;93328.53;4990694;28;9077;-60
2023/09/22 12:16:01;;;;;;;;;;;;;;;28.70;41.60;93322.25;4955949;28;9130;-60
2023/09/22 12:18:27;;;;;;;;;;;;;;;28.70;41.87;93320.22;4936931;28;9051;-61
2023/09/22 12:21:03;;;;;;;;;;;;;;;28.73;41.89;93321.84;4918433;28;8217;-61
2023/09/22 12:23:33;;;;;;;;;;;;;;;28.74;42.40;93312.28;4933722;28;7240;-61
2023/09/22 12:26:02;;;;;;;;;;;;;;;28.76;41.75;93300.63;4953416;28;9013;-61
2023/09/22 12:28:28;;;;;;;;;;;;;;;28.76;42.02;93293.06;4956570;28;7247;-62
2023/09/22 12:34:35;;;;;;;;;;;;;;;28.75;42.45;93294.34;4967901;28;7287;-61
2023/09/22 12:37:12;;;;;;;;;;;;;;;28.74;42.22;93289.41;4957015;28;7011;-61
2023/09/22 12:39:57;;;;;;;;;;;;;;;28.74;41.68;93297.69;4966871;28;7071;-61
2023/09/22 12:42:25;;;;;;;;;;;;;;;28.73;42.40;93294.19;4971046;28;8270;-61
2023/09/22 12:45:22;;;;;;;;;;;;;;;28.75;42.52;93302.66;4970792;28;7010;-61
2023/09/22 12:47:49;;;;;;;;;;;;;;;28.77;41.92;93291.06;4969285;28;9160;-61
2023/09/22 12:50:17;;;;;;;;;;;;;;;28.77;41.83;93289.03;4947709;28;7538;-61
2023/09/22 12:53:36;;;;;;;;;;;;;;;28.77;42.48;93286.25;4997254;28;7542;-61
2023/09/22 12:56:12;;;;;;;;;;;;;;;28.78;42.51;93284.94;4998817;28;7018;-62
2023/09/22 12:58:39;;;;;;;;;;;;;;;28.79;41.94;93278.13;4998853;28;9598;-62
2023/09/22 13:01:10;;;;;;;;;;;;;;;28.82;41.76;93282.53;4998087;28;7253;-61
2023/09/22 13:04:06;;;;;;;;;;;;;;;28.82;41.84;93281.78;4981268;28;7244;-61
2023/09/22 13:07:09;;;;;;;;;;;;;;;28.85;43.12;93281.44;4990268;28;8611;-61
2023/09/22 13:09:49;;;;;;;;;;;;;;;28.83;42.81;93281.25;4945175;28;7426;-61
2023/09/22 13:12:54;;;;;;;;;;;;;;;28.80;43.04;93274.06;4949017;28;9193;-62
2023/09/22 13:15:48;;;;;;;;;;;;;;;28.85;42.48;93286.97;4950851;28;8754;-61
2023/09/22 13:18:26;;;;;;;;;;;;;;;28.85;42.57;93284.19;4938856;28;7277;-61
2023/09/22 13:21:13;;;;;;;;;;;;;;;28.87;41.87;93287.16;4941880;28;7521;-61
2023/09/22 13:23:41;;;;;;;;;;;;;;;28.87;42.75;93298.22;4952979;28;7259;-61
2023/09/22 13:26:26;;;;;;;;;;;;;;;28.89;41.94;93292.84;4935169;28;7244;-61
2023/09/22 13:29:13;;;;;;;;;;;;;;;28.85;41.63;93294.53;4955847;28;7256;-61
2023/09/22 13:31:39;;;;;;;;;;;;;;;28.87;42.34;93291.94;4936514;28;8857;-61
2023/09/22 13:34:17;;;;;;;;;;;;;;;28.87;42.02;93305.78;4921037;29;9072;-61
2023/09/22 13:36:48;;;;;;;;;;;;;;;28.85;42.11;93306.34;4945559;28;7216;-61
2023/09/22 13:39:16;;;;;;;;;;;;;;;28.85;41.94;93298.03;4914797;29;6985;-61
2023/09/22 13:41:45;;;;;;;;;;;;;;;28.84;42.32;93310.38;4949286;28;7247;-60
2023/09/22 13:44:16;;;;;;;;;;;;;;;28.86;42.56;93316.09;4924987;28;7180;-61
2023/09/22 13:46:47;;;;;;;;;;;;;;;28.89;41.70;93317.75;4997719;28;6975;-60
2023/09/22 13:49:14;;;;;;;;;;;;;;;28.90;42.67;93319.25;5009189;28;7309;-60